Aalter, Belgium
Current Conditions -  °F | °C
As of 11:25 AM on Thursday 27 Nov 2014 (Local Time) from EHFS Reporting Station
Haze Haze  
Wind Chill: 50°   Ceiling: 300
Heat Index: 50°   Visibility: 2.2mi
Dew Point: 50°   Wind: 12mph
Humidity: 100%   Direction: 140°SE
Pressure: 29.71"   Gusts: NA
Location:  51.09°N, 3.45°E
Report Text: EHFS 271025Z AUTO 14010KT 3600 BR OVC003/// 10/10 Q1006
Loading
Personal Weather Stations






























Interactive Weather Map New forecast layout! Learn more

10-Day Weather Forecast

Advertisements
Track Severe Weather on mobile